My Meet Scores
Maria Bukowski, U.S. Gymnastics Training Center - MyMeetScores.com
Top100 | Top Teams | Upcoming Meets | Completed Meets | Latest | Add Scores | Help| Support | Bookmark and Share

Maria Bukowski, U.S. Gymnastics Training Center
Personal Bests
LevelVault BarsBeamFloorAA
39.0008.650 8.6008.35034.150
48.6508.600 9.1508.95034.500
58.9008.150 9.0009.15034.850
68.6509.750 9.3009.40036.375
Scores on America's Top 100as of 05.10.2021
Year Level Vault Bars Beam Floor AA
2021 69.750

Click here to view our exclusive Top 100 Collection
Meet Scores
Date Meet Team Session Level Division Vault Bars Beam Floor AA
2021-04-15 Illinois level 6 & Xcel Silver State Champion U.S. Gymnastics Training Center 09 6 Sr C 8.325 30 9.750 2 9.175 13 9.125 28T 36.375 13
2021-02-26 Kinetic Classic 2021 U.S. Gymnastics Training Center 12 6 Older 8.600 23 9.000 6T 9.175 12T 9.225 16T 36.000 11
2021-02-12 Super Girl Invite U.S. Gymnastics Training Center 12 6 All 8.050 12 9.100 6T 9.300 2T 9.400 12 35.850 9
2021-01-21 King Arthur Invitational U.S. Gymnastics Training Center 4 6 SR 8.400 9 8.925 2 8.975 7 9.000 8T 35.300 4
2021-01-15 Leenda's Island Adventure U.S. Gymnastics Training Center A12 6 Jr B 8.150 8 9.000 6 8.525 7 9.125 5T 34.800 7
2020-02-28 MEGA Spring Invite 2020 U.S. Gymnastics Training Center 2 6 Junior 8.050 21 8.400 18 9.000 12T 8.800 20 34.250 18
2020-01-24 Uga Invitational U.S. Gymnastics Training Center 7A 6 Junior 8.650 10T 8.825 8 8.450 11T 9.350 6T 35.275 8T
2020-01-10 St Jude Benefit Meet U.S. Gymnastics Training Center 1B 6 Sr A 8.500 14 8.750 6T 8.750 11 9.125 12T 35.125 9
2019-12-13 2019 St Nick U.S. Gymnastics Training Center 4 6 JrB 8.300 11T 7.800 11 8.600 8 8.975 9 33.675 9
2019-03-22 Illinois Gymnastics State Championships U.S. Gymnastics Training Center 1 5 JR E 8.900 15T 8.150 23 8.650 16 9.150 9T 34.850 16
2019-02-01 The Big Chill U.S. Gymnastics Training Center 1 5 11 & up 0.000 2T 6.700 11 8.650 5 8.575 5T 32.550 8
2019-01-25 UGA Invitational U.S. Gymnastics Training Center B11 5 Jr B 8.200 14 7.900 11 9.000 6 8.375 12 33.475 11
2019-01-11 Lake Geneva Gymnastics Vacation Classic U.S. Gymnastics Training Center 2 5 Junior 8.800 4 7.975 6 8.850 2 8.950 4 34.575 4
2018-12-14 Hawaiian Pineapple Classic U.S. Gymnastics Training Center 4B 5 Age11 8.150 14 7.500 10 8.900 3 8.650 6T 33.200 10
2018-11-17 Paul Hamm Thanksgiving Class WOMENS U.S. Gymnastics Training Center 5 5 Older 8.300 16 6.425 19 8.475 10 7.700 19 30.900 19
2018-11-03 Phyllis Matras Invite U.S. Gymnastics Training Center All 5 All 8.300 25 7.500 26 8.400 14T 8.550 18T 32.750 24T
2018-03-08 Level 4 & 5 State U.S. Gymnastics Training Center All 4 Yh F 8.400 23T 8.150 23 9.050 14T 8.350 26 33.950 24
2018-02-09 IGI Chicago Style Gymnastics Meet U.S. Gymnastics Training Center 20 4 221 Lake Shore Dr L4 B 8.300 19 7.350 22 8.950 11 8.675 20 33.275 16
2018-01-26 2018 UGA Classic U.S. Gymnastics Training Center B5 4 Junior 7.350 16T 7.750 12 9.150 3T 8.950 5 33.200 9
2018-01-12 St Jude Benefit Meet U.S. Gymnastics Training Center 2A 4 SrA 8.275 12T 8.600 15 8.900 12T 8.725 13 34.500 13
2017-12-08 St. Nick Invite U.S. Gymnastics Training Center 1 4 JrB 7.725 16 7.750 10 9.100 4 8.875 4 33.450 8
2017-11-16 Paul Hamm Thanksgiving Classic - Women U.S. Gymnastics Training Center 7 4 Middle 8.650 16 8.000 26 9.050 20T 8.200 27 33.900 24
2017-11-04 Phyllis Matras Invite U.S. Gymnastics Training Center 4 Jr D 8.000 9 7.300 10 9.050 4 8.800 3 33.150 5
2017-02-17 Big Classic U.S. Gymnastics Training Center B 4 Child A 7.400 48T 7.650 45 8.175 48 7.550 48T 30.775 49
2017-02-03 St. Valentines Classic Womens U.S. Gymnastics Training Center 1A 4 8-10 yrs. 7.350 31 7.900 23 7.400 32 7.850 25 30.500 29
2017-01-13 St Jude Benefit Meet U.S. Gymnastics Training Center 3A 4 Jr A 7.800 13T 7.800 14 7.900 16 7.825 17 31.325 15
2016-12-15 2016 Hawaiian Pineapple Sanction U.S. Gymnastics Training Center 8A 4 Ages 9U 7.750 14 7.600 15 8.725 8 8.400 14 32.475 14
2016-03-04 2016 Illinois Level 3 State Championships U.S. Gymnastics Training Center 3 Child-F 8.800 28 8.650 18 8.350 19 8.350 26 34.150 23
2016-02-13 Western Invite U.S. Gymnastics Training Center 3 3 Filly 8.400 9 8.250 8 8.600 2 8.250 8 33.500 8
2016-02-05 St. Valentines Classic U.S. Gymnastics Training Center 2A 3 All Ages 9.000 46T 8.500 34 8.275 40T 7.750 55T 33.525 44
Get your scores on
a t-shirt, pin, or hoodie

www.lazysuits.com